createdAt,value
2018-06-13T00:00:42.401Z,23.35
2018-06-13T00:03:11.419Z,23.30
2018-06-13T00:05:40.360Z,23.26
2018-06-13T00:08:09.364Z,23.16
2018-06-13T00:10:38.371Z,23.06
2018-06-13T00:13:07.367Z,23.00
2018-06-13T00:15:36.381Z,22.94
2018-06-13T00:18:05.486Z,22.92
2018-06-13T00:20:34.492Z,22.87
2018-06-13T00:23:03.479Z,22.84
2018-06-13T00:25:32.412Z,22.78
2018-06-13T00:28:01.372Z,22.80
2018-06-13T00:30:30.308Z,22.72
2018-06-13T00:32:59.421Z,22.67
2018-06-13T00:35:28.437Z,22.61
2018-06-13T00:37:57.436Z,22.56
2018-06-13T00:40:26.461Z,22.53
2018-06-13T00:42:55.391Z,22.53
2018-06-13T00:45:24.485Z,22.50
2018-06-13T00:47:53.512Z,22.43
2018-06-13T00:50:22.553Z,22.41
2018-06-13T00:52:51.504Z,22.38
2018-06-13T00:55:20.450Z,22.34
2018-06-13T00:57:49.513Z,22.33
2018-06-13T01:00:18.473Z,22.31
2018-06-13T01:02:47.544Z,22.30
2018-06-13T01:05:16.557Z,22.26
2018-06-13T01:07:45.520Z,22.24
2018-06-13T01:10:14.620Z,22.20
2018-06-13T01:12:43.685Z,22.16
2018-06-13T01:15:12.708Z,22.17
2018-06-13T01:17:42.547Z,22.15
2018-06-13T01:20:11.560Z,22.16
2018-06-13T01:22:40.511Z,22.14
2018-06-13T01:25:09.520Z,22.15
2018-06-13T01:27:38.602Z,22.15
2018-06-13T01:30:07.522Z,22.12
2018-06-13T01:32:36.527Z,22.08
2018-06-13T01:35:05.545Z,22.08
2018-06-13T01:37:34.561Z,22.07
2018-06-13T01:40:03.589Z,22.12
2018-06-13T01:42:32.593Z,22.12
2018-06-13T01:45:01.647Z,22.05
2018-06-13T01:47:30.604Z,21.99
2018-06-13T01:49:59.608Z,21.91
2018-06-13T01:52:28.612Z,21.87
2018-06-13T01:54:57.556Z,21.85
2018-06-13T01:57:26.546Z,21.81
2018-06-13T01:59:55.545Z,21.78
2018-06-13T02:02:24.603Z,21.77
2018-06-13T02:04:53.670Z,21.77
2018-06-13T02:07:22.625Z,21.74
2018-06-13T02:09:51.781Z,21.75
2018-06-13T02:14:48.660Z,21.75
2018-06-13T02:17:17.616Z,21.73
2018-06-13T02:19:46.610Z,21.80
2018-06-13T02:22:15.721Z,21.86
2018-06-13T02:24:44.709Z,21.88
2018-06-13T02:27:13.709Z,21.92
2018-06-13T02:29:42.776Z,21.95
2018-06-13T02:32:11.815Z,21.90
2018-06-13T02:34:40.829Z,21.86
2018-06-13T02:37:09.837Z,21.81
2018-06-13T02:39:38.804Z,21.81
2018-06-13T02:42:07.816Z,21.81
2018-06-13T02:44:36.763Z,21.79
2018-06-13T02:47:05.753Z,21.80
2018-06-13T02:49:34.744Z,21.80
2018-06-13T02:52:03.723Z,21.83
2018-06-13T02:54:32.684Z,21.87
2018-06-13T02:57:01.632Z,21.91
2018-06-13T02:59:30.632Z,21.98
2018-06-13T03:01:59.643Z,22.04
2018-06-13T03:04:28.665Z,22.09
2018-06-13T03:06:57.677Z,22.16
2018-06-13T03:09:26.688Z,22.23
2018-06-13T03:11:55.756Z,22.25
2018-06-13T03:14:24.746Z,22.27
2018-06-13T03:16:53.720Z,22.33
2018-06-13T03:19:22.723Z,22.40
2018-06-13T03:21:51.704Z,22.46
2018-06-13T03:24:20.703Z,22.53
2018-06-13T03:26:49.801Z,22.62
2018-06-13T03:29:18.829Z,22.71
2018-06-13T03:31:47.849Z,22.84
2018-06-13T03:34:16.800Z,22.96
2018-06-13T03:36:45.799Z,23.10
2018-06-13T03:39:14.758Z,23.21
2018-06-13T03:41:43.756Z,23.33
2018-06-13T03:44:12.718Z,23.46
2018-06-13T03:46:41.665Z,24.02
2018-06-13T03:49:10.785Z,25.15
2018-06-13T03:51:39.868Z,25.67
2018-06-13T03:54:08.877Z,25.88
2018-06-13T03:56:37.961Z,26.79
2018-06-13T03:59:06.996Z,28.09
2018-06-13T04:01:36.000Z,28.58
2018-06-13T04:04:04.948Z,28.95
2018-06-13T04:06:33.889Z,30.13
2018-06-13T04:09:03.028Z,31.32
2018-06-13T04:11:32.009Z,32.26
2018-06-13T04:14:01.020Z,33.00
2018-06-13T04:16:30.009Z,33.33
2018-06-13T04:18:59.081Z,33.92
2018-06-13T04:21:28.106Z,34.52
2018-06-13T04:23:57.036Z,35.06
2018-06-13T04:26:26.079Z,35.29
2018-06-13T04:28:55.212Z,35.32
2018-06-13T04:31:24.174Z,35.37
2018-06-13T04:33:53.180Z,35.48
2018-06-13T04:36:22.176Z,35.90
2018-06-13T04:38:51.317Z,36.48
2018-06-13T04:41:20.333Z,36.57
2018-06-13T04:43:49.331Z,37.07
2018-06-13T04:46:18.316Z,37.64
2018-06-13T04:48:47.401Z,38.37
2018-06-13T04:51:16.489Z,38.85
2018-06-13T04:53:45.484Z,39.32
2018-06-13T04:56:14.439Z,39.64
2018-06-13T04:58:43.469Z,39.69
2018-06-13T05:01:12.419Z,39.87
2018-06-13T05:03:41.497Z,40.23
2018-06-13T05:06:10.465Z,40.66
2018-06-13T05:08:39.427Z,41.07
2018-06-13T05:11:08.449Z,41.09
2018-06-13T05:13:37.412Z,40.90
2018-06-13T05:16:06.427Z,41.43
2018-06-13T05:18:35.385Z,41.95
2018-06-13T05:21:04.332Z,42.07
2018-06-13T05:23:33.337Z,42.19
2018-06-13T05:26:02.310Z,42.42
2018-06-13T05:28:31.324Z,42.79
2018-06-13T05:31:00.263Z,43.03
2018-06-13T05:33:29.265Z,43.61
2018-06-13T05:35:58.272Z,43.31
2018-06-13T05:38:27.240Z,43.23
2018-06-13T05:40:56.415Z,43.28
2018-06-13T05:43:25.470Z,43.19
2018-06-13T05:45:54.449Z,43.41
2018-06-13T05:48:23.470Z,43.16
2018-06-13T05:50:52.537Z,43.00
2018-06-13T05:53:21.548Z,43.43
2018-06-13T05:55:50.499Z,43.43
2018-06-13T05:58:19.526Z,44.03
2018-06-13T06:00:48.544Z,44.34
2018-06-13T06:03:17.605Z,44.34
2018-06-13T06:05:46.739Z,44.10
2018-06-13T06:08:15.700Z,44.28
2018-06-13T06:10:44.750Z,44.69
2018-06-13T06:13:13.779Z,44.48
2018-06-13T06:15:42.784Z,44.17
2018-06-13T06:18:11.812Z,44.76
2018-06-13T06:20:40.906Z,45.05
2018-06-13T06:23:10.047Z,45.05
2018-06-13T06:25:39.008Z,45.62
2018-06-13T06:28:08.014Z,45.17
2018-06-13T06:30:37.040Z,45.20
2018-06-13T06:33:06.059Z,45.27
2018-06-13T06:35:35.130Z,45.52
2018-06-13T06:38:04.155Z,45.77
2018-06-13T06:40:33.112Z,45.03
2018-06-13T06:43:02.116Z,44.64
2018-06-13T06:45:31.225Z,44.23
2018-06-13T06:48:00.307Z,44.46
2018-06-13T06:50:29.266Z,44.84
2018-06-13T06:52:58.336Z,44.30
2018-06-13T06:55:27.399Z,44.81
2018-06-13T06:57:56.320Z,44.54
2018-06-13T07:00:25.259Z,44.44
2018-06-13T07:02:54.233Z,42.72
2018-06-13T07:05:23.229Z,41.37
2018-06-13T07:07:52.289Z,42.13
2018-06-13T07:10:21.248Z,43.25
2018-06-13T07:12:50.191Z,43.19
2018-06-13T07:15:19.275Z,43.27
2018-06-13T07:17:48.332Z,43.33
2018-06-13T07:20:17.412Z,42.77
2018-06-13T07:22:46.371Z,42.95
2018-06-13T07:25:15.370Z,42.62
2018-06-13T07:27:44.388Z,42.38
2018-06-13T07:30:13.398Z,42.22
2018-06-13T07:32:42.449Z,41.93
2018-06-13T07:35:11.404Z,42.22
2018-06-13T07:37:40.429Z,42.19
2018-06-13T07:40:09.506Z,42.29
2018-06-13T07:42:38.500Z,42.62
2018-06-13T07:45:07.564Z,42.79
2018-06-13T07:47:36.524Z,42.99
2018-06-13T07:50:05.632Z,42.49
2018-06-13T07:52:34.583Z,41.37
2018-06-13T07:55:03.582Z,40.16
2018-06-13T07:57:32.616Z,39.55
2018-06-13T08:00:01.629Z,39.20
2018-06-13T08:02:30.576Z,38.75
2018-06-13T08:04:59.528Z,38.32
2018-06-13T08:07:28.542Z,37.92
2018-06-13T08:09:57.661Z,37.71
2018-06-13T08:12:26.637Z,37.57
2018-06-13T08:14:55.642Z,37.40
2018-06-13T08:17:24.668Z,37.43
2018-06-13T08:19:53.769Z,37.34
2018-06-13T08:22:22.792Z,37.14
2018-06-13T08:24:53.749Z,37.08
2018-06-13T08:27:22.783Z,36.90
2018-06-13T08:29:51.808Z,36.86
2018-06-13T08:32:20.851Z,36.74
2018-06-13T08:34:49.853Z,36.87
2018-06-13T08:37:18.849Z,37.17
2018-06-13T08:39:48.024Z,37.29
2018-06-13T08:42:16.957Z,37.35
2018-06-13T08:44:46.014Z,37.44
2018-06-13T08:47:15.023Z,37.44
2018-06-13T08:49:44.029Z,37.40
2018-06-13T08:52:13.149Z,37.24
2018-06-13T08:54:42.156Z,36.99
2018-06-13T08:57:11.117Z,36.87
2018-06-13T08:59:40.202Z,36.98
2018-06-13T09:02:09.194Z,37.17
2018-06-13T09:04:38.146Z,36.88
2018-06-13T09:07:07.205Z,36.94
2018-06-13T09:09:36.217Z,37.02
2018-06-13T09:12:05.291Z,37.09
2018-06-13T09:14:34.284Z,37.23
2018-06-13T09:17:03.276Z,37.18
2018-06-13T09:19:32.347Z,37.41
2018-06-13T09:22:01.300Z,37.74
2018-06-13T09:24:30.381Z,38.11
2018-06-13T09:26:59.327Z,38.33
2018-06-13T09:29:28.328Z,38.47
2018-06-13T09:31:57.415Z,38.14
2018-06-13T09:34:26.557Z,37.88
2018-06-13T09:36:55.580Z,37.80
2018-06-13T09:39:24.600Z,37.70
2018-06-13T09:41:58.634Z,37.73
2018-06-13T09:44:27.644Z,37.78
2018-06-13T09:46:56.580Z,38.12
2018-06-13T09:49:25.540Z,37.58
2018-06-13T09:51:54.581Z,37.39
2018-06-13T09:54:23.593Z,37.71
2018-06-13T09:56:52.612Z,38.14
2018-06-13T09:59:21.981Z,38.84
2018-06-13T10:01:56.125Z,39.38
2018-06-13T10:04:25.145Z,39.69
2018-06-13T10:06:54.179Z,39.65
2018-06-13T10:09:23.128Z,39.67
2018-06-13T10:11:52.127Z,39.45
2018-06-13T10:14:21.088Z,39.51
2018-06-13T10:16:50.138Z,39.44
2018-06-13T10:19:19.190Z,39.19
2018-06-13T10:21:48.262Z,39.50
2018-06-13T10:24:17.277Z,39.67
2018-06-13T10:26:46.260Z,39.62
2018-06-13T10:29:15.219Z,40.12
2018-06-13T10:31:44.350Z,40.88
2018-06-13T10:34:13.359Z,40.79
2018-06-13T10:36:42.306Z,40.75
2018-06-13T10:39:11.248Z,40.86
2018-06-13T10:41:40.184Z,41.18
2018-06-13T10:44:09.201Z,40.67
2018-06-13T10:46:38.264Z,40.78
2018-06-13T10:49:07.272Z,40.85
2018-06-13T10:51:36.216Z,41.02
2018-06-13T10:54:05.228Z,40.83
2018-06-13T10:56:34.342Z,40.35
2018-06-13T10:59:03.304Z,40.28
2018-06-13T11:01:32.305Z,40.93
2018-06-13T11:04:01.309Z,41.27
2018-06-13T11:06:30.255Z,40.52
2018-06-13T11:08:59.333Z,39.72
2018-06-13T11:11:28.296Z,39.21
2018-06-13T11:13:57.291Z,39.31
2018-06-13T11:16:26.309Z,39.19
2018-06-13T11:18:55.341Z,39.12
2018-06-13T11:21:24.497Z,39.56
2018-06-13T11:23:53.560Z,40.04
2018-06-13T11:26:22.587Z,40.30
2018-06-13T11:28:51.617Z,40.22
2018-06-13T11:31:20.650Z,39.88
2018-06-13T11:33:49.745Z,40.42
2018-06-13T11:36:18.813Z,40.59
2018-06-13T11:38:47.767Z,41.30
2018-06-13T11:41:16.722Z,41.11
2018-06-13T11:43:45.773Z,41.71
2018-06-13T11:46:14.841Z,42.43
2018-06-13T11:48:43.804Z,42.18
2018-06-13T11:51:12.812Z,42.41
2018-06-13T11:53:42.090Z,42.73
2018-06-13T11:56:11.001Z,42.80
2018-06-13T11:58:40.067Z,42.49
2018-06-13T12:01:09.138Z,42.09
2018-06-13T12:03:38.234Z,42.09
2018-06-13T12:06:07.269Z,42.30
2018-06-13T12:08:37.275Z,42.83
2018-06-13T12:11:06.291Z,43.29
2018-06-13T12:13:35.294Z,44.33
2018-06-13T12:16:04.308Z,44.77
2018-06-13T12:19:04.549Z,43.92
2018-06-13T12:21:33.561Z,42.98
2018-06-13T12:24:02.625Z,42.22
2018-06-13T12:26:31.640Z,42.84
2018-06-13T12:29:00.644Z,43.16
2018-06-13T12:31:29.619Z,44.31
2018-06-13T12:33:58.616Z,45.48
2018-06-13T12:36:27.689Z,44.86
2018-06-13T12:38:56.710Z,42.74
2018-06-13T12:41:25.657Z,40.99
2018-06-13T12:43:54.624Z,39.51
2018-06-13T12:46:23.573Z,38.64
2018-06-13T12:48:52.576Z,37.78
2018-06-13T12:51:21.520Z,37.08
2018-06-13T12:53:50.524Z,36.74
2018-06-13T12:56:19.462Z,37.35
2018-06-13T12:58:48.528Z,38.69
2018-06-13T13:01:17.517Z,39.80
2018-06-13T13:03:46.462Z,41.07
2018-06-13T13:06:15.497Z,41.42
2018-06-13T13:08:44.504Z,41.94
2018-06-13T13:11:13.511Z,42.95
2018-06-13T13:13:42.520Z,43.31
2018-06-13T13:16:11.526Z,43.29
2018-06-13T13:18:40.543Z,42.61
2018-06-13T13:21:09.707Z,41.20
2018-06-13T13:23:38.719Z,39.63
2018-06-13T13:26:07.725Z,38.73
2018-06-13T13:28:36.747Z,39.11
2018-06-13T13:31:05.723Z,39.48
2018-06-13T13:33:34.736Z,39.86
2018-06-13T13:36:03.745Z,39.82
2018-06-13T13:38:32.858Z,39.47
2018-06-13T13:41:01.882Z,38.69
2018-06-13T13:43:30.881Z,38.47
2018-06-13T13:45:59.888Z,39.18
2018-06-13T13:48:28.921Z,39.98
2018-06-13T13:50:58.012Z,40.38
2018-06-13T13:53:27.085Z,40.46
2018-06-13T13:55:56.091Z,39.88
2018-06-13T13:58:25.076Z,39.61
2018-06-13T14:00:54.162Z,39.13
2018-06-13T14:03:23.349Z,38.56
2018-06-13T14:05:52.353Z,37.86
2018-06-13T14:08:21.395Z,37.41
2018-06-13T14:10:50.468Z,36.89
2018-06-13T14:13:19.462Z,36.59
2018-06-13T14:15:48.607Z,36.17
2018-06-13T14:18:17.556Z,35.91
2018-06-13T14:20:46.552Z,35.62
2018-06-13T14:23:17.118Z,35.45
2018-06-13T14:25:46.117Z,35.34
2018-06-13T14:28:15.180Z,35.23
2018-06-13T14:30:44.266Z,35.05
2018-06-13T14:33:13.521Z,34.64
2018-06-13T14:35:42.549Z,34.47
2018-06-13T14:38:11.582Z,34.26
2018-06-13T14:40:40.620Z,34.06
2018-06-13T14:43:09.580Z,33.71
2018-06-13T14:45:38.544Z,33.76
2018-06-13T14:48:07.580Z,33.81
2018-06-13T14:50:36.532Z,33.77
2018-06-13T14:53:05.621Z,33.78
2018-06-13T14:55:40.378Z,33.82
2018-06-13T14:58:09.624Z,33.79
2018-06-13T15:00:38.657Z,33.75
2018-06-13T15:03:07.739Z,33.82
2018-06-13T15:05:36.724Z,33.81
2018-06-13T15:08:05.687Z,33.75
2018-06-13T15:10:34.805Z,33.70
2018-06-13T15:13:03.821Z,33.69
2018-06-13T15:15:32.835Z,33.68
2018-06-13T15:18:01.801Z,33.57
2018-06-13T15:20:30.793Z,33.53
2018-06-13T15:22:59.857Z,33.43
2018-06-13T15:25:28.925Z,33.31
2018-06-13T15:27:57.964Z,33.21
2018-06-13T15:30:26.969Z,33.09
2018-06-13T15:32:55.956Z,33.00
2018-06-13T15:35:25.028Z,32.87
2018-06-13T15:37:53.993Z,32.78
2018-06-13T15:40:23.084Z,32.73
2018-06-13T15:42:52.213Z,32.75
2018-06-13T15:45:21.233Z,32.72
2018-06-13T15:47:50.301Z,32.70
2018-06-13T15:50:19.289Z,32.64
2018-06-13T15:52:48.316Z,32.55
2018-06-13T15:55:17.297Z,32.52
2018-06-13T15:57:46.384Z,32.47
2018-06-13T16:00:15.448Z,32.42
2018-06-13T16:02:44.454Z,32.36
2018-06-13T16:05:13.520Z,32.27
2018-06-13T16:07:42.662Z,32.21
2018-06-13T16:10:11.781Z,32.11
2018-06-13T16:12:40.943Z,32.03
2018-06-13T16:15:10.000Z,31.95
2018-06-13T16:17:39.021Z,31.85
2018-06-13T16:20:08.005Z,31.76
2018-06-13T16:22:37.008Z,31.67
2018-06-13T16:25:06.060Z,31.61
2018-06-13T16:27:35.026Z,31.50
2018-06-13T16:30:04.157Z,31.45
2018-06-13T16:32:33.213Z,31.41
2018-06-13T16:35:02.289Z,31.32
2018-06-13T16:37:31.413Z,31.28
2018-06-13T16:40:01.185Z,31.21
2018-06-13T16:42:30.240Z,31.15
2018-06-13T16:44:59.262Z,31.13
2018-06-13T16:47:28.208Z,31.07
2018-06-13T16:49:57.278Z,31.01
2018-06-13T16:52:37.157Z,30.97
2018-06-13T16:55:24.690Z,30.86
2018-06-13T16:57:53.780Z,30.75
2018-06-13T17:00:23.261Z,30.71
2018-06-13T17:02:52.608Z,30.65
2018-06-13T17:05:21.560Z,30.63
2018-06-13T17:07:50.676Z,30.57
2018-06-13T17:10:19.799Z,30.56
2018-06-13T17:12:48.810Z,30.53
2018-06-13T17:15:17.760Z,30.51
2018-06-13T17:17:46.754Z,30.52
2018-06-13T17:20:15.821Z,30.49
2018-06-13T17:22:44.899Z,30.40
2018-06-13T17:25:13.854Z,30.29
2018-06-13T17:27:44.943Z,30.14
2018-06-13T17:30:14.025Z,29.98
2018-06-13T17:32:43.096Z,29.91
2018-06-13T17:35:12.166Z,29.79
2018-06-13T17:37:41.153Z,29.55
2018-06-13T17:40:10.157Z,29.43
2018-06-13T17:42:39.290Z,29.36
2018-06-13T17:45:08.309Z,29.27
2018-06-13T17:47:37.361Z,29.29
2018-06-13T17:50:06.298Z,29.21
2018-06-13T17:52:35.272Z,29.14
2018-06-13T17:55:04.273Z,29.00
2018-06-13T17:57:33.390Z,28.93
2018-06-13T18:00:02.375Z,28.81
2018-06-13T18:02:31.388Z,28.71
2018-06-13T18:05:00.436Z,28.61
2018-06-13T18:07:29.401Z,28.63
2018-06-13T18:09:58.380Z,28.56
2018-06-13T18:12:27.436Z,28.47
2018-06-13T18:14:56.456Z,28.40
2018-06-13T18:17:25.477Z,28.32
2018-06-13T18:19:54.496Z,28.24
2018-06-13T18:22:23.553Z,28.17
2018-06-13T18:24:52.588Z,28.11
2018-06-13T18:27:21.612Z,28.05
2018-06-13T18:29:50.605Z,27.91
2018-06-13T18:32:19.612Z,27.92
2018-06-13T18:34:48.703Z,27.88
2018-06-13T18:37:17.774Z,27.85
2018-06-13T18:39:46.776Z,27.85
2018-06-13T18:42:15.696Z,27.78
2018-06-13T18:44:44.780Z,27.71
2018-06-13T18:47:13.870Z,27.69
2018-06-13T18:49:42.910Z,27.66
2018-06-13T18:52:11.933Z,27.64
2018-06-13T18:54:41.033Z,27.59
2018-06-13T18:57:10.221Z,27.56
2018-06-13T18:59:39.280Z,27.51
2018-06-13T19:02:08.364Z,27.51
2018-06-13T19:04:37.414Z,27.50
2018-06-13T19:07:06.361Z,27.48
2018-06-13T19:09:35.326Z,27.48
2018-06-13T19:12:04.352Z,27.45
2018-06-13T19:14:33.301Z,27.39
2018-06-13T19:17:02.274Z,27.32
2018-06-13T19:19:31.396Z,27.25
2018-06-13T19:22:00.425Z,27.15
2018-06-13T19:24:29.437Z,26.97
2018-06-13T19:26:58.396Z,26.90
2018-06-13T19:29:27.749Z,26.83
2018-06-13T19:31:56.753Z,26.73
2018-06-13T19:34:25.837Z,26.68
2018-06-13T19:36:54.899Z,26.66
2018-06-13T19:39:23.997Z,26.62
2018-06-13T19:41:52.951Z,26.55
2018-06-13T19:44:21.996Z,26.49
2018-06-13T19:46:51.069Z,26.41
2018-06-13T19:49:20.103Z,26.34
2018-06-13T19:51:49.096Z,26.26
2018-06-13T19:54:23.299Z,26.21
2018-06-13T19:56:52.317Z,26.14
2018-06-13T19:59:21.304Z,26.09
2018-06-13T20:01:50.678Z,26.07
2018-06-13T20:04:24.809Z,26.05
2018-06-13T20:06:53.812Z,25.98
2018-06-13T20:09:22.820Z,25.94
2018-06-13T20:11:51.776Z,25.88
2018-06-13T20:14:25.820Z,25.83
2018-06-13T20:16:59.905Z,25.82
2018-06-13T20:19:35.571Z,25.80
2018-06-13T20:22:04.523Z,25.74
2018-06-13T20:24:33.565Z,25.72
2018-06-13T20:27:07.557Z,25.70
2018-06-13T20:29:41.432Z,25.69
2018-06-13T20:32:10.376Z,25.66
2018-06-13T20:34:39.365Z,25.67
2018-06-13T20:37:08.381Z,25.70
2018-06-13T20:39:37.400Z,25.77
2018-06-13T20:42:06.401Z,25.85
2018-06-13T20:44:35.384Z,26.04
2018-06-13T20:47:04.319Z,26.18
2018-06-13T20:49:33.460Z,25.91
2018-06-13T20:52:02.521Z,25.73
2018-06-13T20:54:31.496Z,25.60
2018-06-13T20:57:00.468Z,25.45
2018-06-13T20:59:29.435Z,25.47
2018-06-13T21:01:58.439Z,25.35
2018-06-13T21:04:27.380Z,25.31
2018-06-13T21:06:56.384Z,25.23
2018-06-13T21:09:25.416Z,25.23
2018-06-13T21:11:54.364Z,25.16
2018-06-13T21:14:23.304Z,25.08
2018-06-13T21:16:52.320Z,24.99
2018-06-13T21:19:21.286Z,24.91
2018-06-13T21:21:50.235Z,24.85
2018-06-13T21:24:19.280Z,24.72
2018-06-13T21:26:48.450Z,24.65
2018-06-13T21:29:17.411Z,24.55
2018-06-13T21:31:46.528Z,24.43
2018-06-13T21:34:15.475Z,24.32
2018-06-13T21:36:44.416Z,24.22
2018-06-13T21:39:13.488Z,24.04
2018-06-13T21:41:42.592Z,24.01
2018-06-13T21:44:11.619Z,23.88
2018-06-13T21:46:40.581Z,23.76
2018-06-13T21:49:09.621Z,23.68
2018-06-13T21:51:38.743Z,23.57
2018-06-13T21:54:07.674Z,23.43
2018-06-13T21:56:36.608Z,23.36
2018-06-13T21:59:05.728Z,23.26
2018-06-13T22:01:34.667Z,23.17
2018-06-13T22:04:03.657Z,23.06
2018-06-13T22:06:32.590Z,22.95
2018-06-13T22:09:01.645Z,22.87
2018-06-13T22:11:30.700Z,22.86
2018-06-13T22:13:59.705Z,22.83
2018-06-13T22:16:28.705Z,22.79
2018-06-13T22:18:57.885Z,22.83
2018-06-13T22:21:26.875Z,22.79
2018-06-13T22:23:55.818Z,22.88
2018-06-13T22:26:24.800Z,22.81
2018-06-13T22:28:53.752Z,22.69
2018-06-13T22:31:22.684Z,22.56
2018-06-13T22:33:51.740Z,22.59
2018-06-13T22:36:20.824Z,22.60
2018-06-13T22:38:50.283Z,22.70
2018-06-13T22:41:19.913Z,22.75
2018-06-13T22:43:48.875Z,22.73
2018-06-13T22:46:17.878Z,22.68
2018-06-13T22:48:46.843Z,22.58
2018-06-13T22:51:15.812Z,22.50
2018-06-13T22:53:44.860Z,22.45
2018-06-13T22:56:13.864Z,22.35
2018-06-13T22:58:42.868Z,22.23
2018-06-13T23:01:12.825Z,22.19
2018-06-13T23:03:41.759Z,22.13
2018-06-13T23:06:11.584Z,22.04
2018-06-13T23:08:40.737Z,21.98
2018-06-13T23:11:09.759Z,21.90
2018-06-13T23:13:38.749Z,21.90
2018-06-13T23:16:07.811Z,21.93
2018-06-13T23:18:36.885Z,21.88
2018-06-13T23:21:05.812Z,21.85
2018-06-13T23:23:34.905Z,21.85
2018-06-13T23:26:03.903Z,21.85
2018-06-13T23:28:32.923Z,21.81
2018-06-13T23:31:01.909Z,21.84
2018-06-13T23:33:30.879Z,21.85
2018-06-13T23:35:59.827Z,21.86
2018-06-13T23:38:28.891Z,21.93
2018-06-13T23:40:57.940Z,22.00
2018-06-13T23:43:27.016Z,22.00
2018-06-13T23:45:55.975Z,22.02
2018-06-13T23:48:24.968Z,22.01
2018-06-13T23:50:53.979Z,21.99
2018-06-13T23:53:22.987Z,21.97
2018-06-13T23:55:52.024Z,21.94
2018-06-13T23:58:21.016Z,21.93
